sensor_id;sensor_type;location;lat;lon;timestamp;P1;durP1;ratioP1;P2;durP2;ratioP2
11531;SDS011;5822;51.000;5.874;2024-01-06T00:01:20;21.30;;;20.10;;
11531;SDS011;5822;51.000;5.874;2024-01-06T00:03:46;21.20;;;20.00;;
11531;SDS011;5822;51.000;5.874;2024-01-06T00:06:12;20.65;;;19.55;;
11531;SDS011;5822;51.000;5.874;2024-01-06T00:08:38;22.17;;;20.88;;
11531;SDS011;5822;51.000;5.874;2024-01-06T00:11:04;22.50;;;21.20;;
11531;SDS011;5822;51.000;5.874;2024-01-06T00:13:30;22.57;;;21.27;;
11531;SDS011;5822;51.000;5.874;2024-01-06T00:15:56;23.20;;;21.90;;
11531;SDS011;5822;51.000;5.874;2024-01-06T00:18:21;21.27;;;20.08;;
11531;SDS011;5822;51.000;5.874;2024-01-06T00:20:47;22.30;;;21.00;;
11531;SDS011;5822;51.000;5.874;2024-01-06T00:23:13;21.40;;;20.10;;
11531;SDS011;5822;51.000;5.874;2024-01-06T00:25:39;21.83;;;20.63;;
11531;SDS011;5822;51.000;5.874;2024-01-06T00:28:05;22.70;;;21.40;;
11531;SDS011;5822;51.000;5.874;2024-01-06T00:30:30;23.37;;;22.07;;
11531;SDS011;5822;51.000;5.874;2024-01-06T00:32:56;22.63;;;21.33;;
11531;SDS011;5822;51.000;5.874;2024-01-06T00:35:21;22.57;;;21.27;;
11531;SDS011;5822;51.000;5.874;2024-01-06T00:37:47;22.00;;;20.80;;
11531;SDS011;5822;51.000;5.874;2024-01-06T00:40:13;21.93;;;20.63;;
11531;SDS011;5822;51.000;5.874;2024-01-06T00:42:38;21.73;;;20.43;;
11531;SDS011;5822;51.000;5.874;2024-01-06T00:45:04;21.60;;;20.40;;
11531;SDS011;5822;51.000;5.874;2024-01-06T00:47:30;21.47;;;20.23;;
11531;SDS011;5822;51.000;5.874;2024-01-06T00:49:56;21.50;;;20.30;;
11531;SDS011;5822;51.000;5.874;2024-01-06T00:52:22;22.00;;;20.80;;
11531;SDS011;5822;51.000;5.874;2024-01-06T00:54:47;22.50;;;21.20;;
11531;SDS011;5822;51.000;5.874;2024-01-06T00:57:13;22.85;;;21.55;;
11531;SDS011;5822;51.000;5.874;2024-01-06T00:59:39;23.33;;;22.03;;
11531;SDS011;5822;51.000;5.874;2024-01-06T01:02:04;22.83;;;21.53;;
11531;SDS011;5822;51.000;5.874;2024-01-06T01:04:30;23.87;;;22.47;;
11531;SDS011;5822;51.000;5.874;2024-01-06T01:06:56;23.50;;;22.10;;
11531;SDS011;5822;51.000;5.874;2024-01-06T01:09:21;24.80;;;23.30;;
11531;SDS011;5822;51.000;5.874;2024-01-06T01:11:47;23.90;;;22.47;;
11531;SDS011;5822;51.000;5.874;2024-01-06T01:14:12;23.67;;;22.27;;
11531;SDS011;5822;51.000;5.874;2024-01-06T01:16:38;23.53;;;22.10;;
11531;SDS011;5822;51.000;5.874;2024-01-06T01:19:04;23.10;;;21.70;;
11531;SDS011;5822;51.000;5.874;2024-01-06T01:21:29;22.08;;;20.77;;
11531;SDS011;5822;51.000;5.874;2024-01-06T01:23:55;22.45;;;21.05;;
11531;SDS011;5822;51.000;5.874;2024-01-06T01:26:21;22.90;;;21.50;;
11531;SDS011;5822;51.000;5.874;2024-01-06T01:28:46;23.13;;;21.73;;
11531;SDS011;5822;51.000;5.874;2024-01-06T01:31:12;22.50;;;21.15;;
11531;SDS011;5822;51.000;5.874;2024-01-06T01:33:38;22.25;;;20.95;;
11531;SDS011;5822;51.000;5.874;2024-01-06T01:36:04;22.87;;;21.57;;
11531;SDS011;5822;51.000;5.874;2024-01-06T01:38:30;21.98;;;20.67;;
11531;SDS011;5822;51.000;5.874;2024-01-06T01:40:56;21.45;;;20.25;;
11531;SDS011;5822;51.000;5.874;2024-01-06T01:43:21;22.15;;;20.85;;
11531;SDS011;5822;51.000;5.874;2024-01-06T01:45:50;21.40;;;20.20;;
11531;SDS011;5822;51.000;5.874;2024-01-06T01:48:18;22.65;;;21.35;;
11531;SDS011;5822;51.000;5.874;2024-01-06T01:50:45;21.58;;;20.38;;
11531;SDS011;5822;51.000;5.874;2024-01-06T01:53:12;21.98;;;20.77;;
11531;SDS011;5822;51.000;5.874;2024-01-06T01:55:39;22.35;;;21.05;;
11531;SDS011;5822;51.000;5.874;2024-01-06T01:58:06;21.45;;;20.25;;
11531;SDS011;5822;51.000;5.874;2024-01-06T02:00:32;21.65;;;20.35;;
11531;SDS011;5822;51.000;5.874;2024-01-06T02:03:01;21.60;;;20.30;;
11531;SDS011;5822;51.000;5.874;2024-01-06T02:05:29;20.23;;;19.08;;
11531;SDS011;5822;51.000;5.874;2024-01-06T02:07:55;20.15;;;19.00;;
11531;SDS011;5822;51.000;5.874;2024-01-06T02:10:21;20.77;;;19.52;;
11531;SDS011;5822;51.000;5.874;2024-01-06T02:12:47;19.47;;;18.37;;
11531;SDS011;5822;51.000;5.874;2024-01-06T02:15:13;19.20;;;18.10;;
11531;SDS011;5822;51.000;5.874;2024-01-06T02:17:39;19.00;;;17.90;;
11531;SDS011;5822;51.000;5.874;2024-01-06T02:20:05;18.40;;;17.30;;
11531;SDS011;5822;51.000;5.874;2024-01-06T02:22:34;18.52;;;17.42;;
11531;SDS011;5822;51.000;5.874;2024-01-06T02:25:01;18.85;;;17.75;;
11531;SDS011;5822;51.000;5.874;2024-01-06T02:27:27;18.17;;;17.08;;
11531;SDS011;5822;51.000;5.874;2024-01-06T02:29:52;18.33;;;17.23;;
11531;SDS011;5822;51.000;5.874;2024-01-06T02:32:18;19.50;;;18.30;;
11531;SDS011;5822;51.000;5.874;2024-01-06T02:34:44;20.80;;;19.50;;
11531;SDS011;5822;51.000;5.874;2024-01-06T02:37:09;20.87;;;19.57;;
11531;SDS011;5822;51.000;5.874;2024-01-06T02:39:35;23.70;;;22.20;;
11531;SDS011;5822;51.000;5.874;2024-01-06T02:42:00;22.27;;;20.98;;
11531;SDS011;5822;51.000;5.874;2024-01-06T02:44:26;21.95;;;20.55;;
11531;SDS011;5822;51.000;5.874;2024-01-06T02:46:52;22.70;;;21.30;;
11531;SDS011;5822;51.000;5.874;2024-01-06T02:49:19;22.93;;;21.43;;
11531;SDS011;5822;51.000;5.874;2024-01-06T02:51:44;22.87;;;21.37;;
11531;SDS011;5822;51.000;5.874;2024-01-06T02:54:10;23.20;;;21.70;;
11531;SDS011;5822;51.000;5.874;2024-01-06T02:56:36;22.57;;;21.17;;
11531;SDS011;5822;51.000;5.874;2024-01-06T02:59:03;23.08;;;21.67;;
11531;SDS011;5822;51.000;5.874;2024-01-06T03:01:28;22.40;;;21.00;;
11531;SDS011;5822;51.000;5.874;2024-01-06T03:03:54;22.60;;;21.20;;
11531;SDS011;5822;51.000;5.874;2024-01-06T03:06:20;22.43;;;21.03;;
11531;SDS011;5822;51.000;5.874;2024-01-06T03:08:45;22.53;;;21.13;;
11531;SDS011;5822;51.000;5.874;2024-01-06T03:11:11;22.03;;;20.73;;
11531;SDS011;5822;51.000;5.874;2024-01-06T03:13:36;21.90;;;20.50;;
11531;SDS011;5822;51.000;5.874;2024-01-06T03:16:05;23.23;;;21.83;;
11531;SDS011;5822;51.000;5.874;2024-01-06T03:18:31;24.38;;;22.88;;
11531;SDS011;5822;51.000;5.874;2024-01-06T03:20:56;25.30;;;23.70;;
11531;SDS011;5822;51.000;5.874;2024-01-06T03:23:22;25.20;;;23.60;;
11531;SDS011;5822;51.000;5.874;2024-01-06T03:25:48;25.50;;;23.90;;
11531;SDS011;5822;51.000;5.874;2024-01-06T03:28:13;26.27;;;24.58;;
11531;SDS011;5822;51.000;5.874;2024-01-06T03:30:39;25.83;;;24.13;;
11531;SDS011;5822;51.000;5.874;2024-01-06T03:33:05;26.63;;;24.93;;
11531;SDS011;5822;51.000;5.874;2024-01-06T03:35:31;25.85;;;24.17;;
11531;SDS011;5822;51.000;5.874;2024-01-06T03:37:57;24.88;;;23.30;;
11531;SDS011;5822;51.000;5.874;2024-01-06T03:40:23;26.45;;;24.75;;
11531;SDS011;5822;51.000;5.874;2024-01-06T03:42:48;26.05;;;24.35;;
11531;SDS011;5822;51.000;5.874;2024-01-06T03:45:14;26.80;;;25.10;;
11531;SDS011;5822;51.000;5.874;2024-01-06T03:47:40;26.55;;;24.85;;
11531;SDS011;5822;51.000;5.874;2024-01-06T03:50:05;26.40;;;24.70;;
11531;SDS011;5822;51.000;5.874;2024-01-06T03:52:31;26.35;;;24.65;;
11531;SDS011;5822;51.000;5.874;2024-01-06T03:54:57;26.33;;;24.53;;
11531;SDS011;5822;51.000;5.874;2024-01-06T03:57:25;25.02;;;23.42;;
11531;SDS011;5822;51.000;5.874;2024-01-06T03:59:51;26.13;;;24.42;;
11531;SDS011;5822;51.000;5.874;2024-01-06T04:02:16;27.65;;;25.75;;
11531;SDS011;5822;51.000;5.874;2024-01-06T04:04:42;27.70;;;25.80;;
11531;SDS011;5822;51.000;5.874;2024-01-06T04:07:07;27.67;;;25.77;;
11531;SDS011;5822;51.000;5.874;2024-01-06T04:09:33;25.67;;;23.97;;
11531;SDS011;5822;51.000;5.874;2024-01-06T04:11:59;26.20;;;24.50;;
11531;SDS011;5822;51.000;5.874;2024-01-06T04:14:25;25.17;;;23.58;;
11531;SDS011;5822;51.000;5.874;2024-01-06T04:16:51;28.00;;;26.10;;
11531;SDS011;5822;51.000;5.874;2024-01-06T04:19:18;27.85;;;25.95;;
11531;SDS011;5822;51.000;5.874;2024-01-06T04:21:45;27.98;;;26.08;;
11531;SDS011;5822;51.000;5.874;2024-01-06T04:24:12;29.80;;;27.80;;
11531;SDS011;5822;51.000;5.874;2024-01-06T04:26:38;27.00;;;25.20;;
11531;SDS011;5822;51.000;5.874;2024-01-06T04:29:03;27.33;;;25.47;;
11531;SDS011;5822;51.000;5.874;2024-01-06T04:31:29;28.73;;;26.73;;
11531;SDS011;5822;51.000;5.874;2024-01-06T04:33:54;26.80;;;25.00;;
11531;SDS011;5822;51.000;5.874;2024-01-06T04:36:20;27.13;;;25.33;;
11531;SDS011;5822;51.000;5.874;2024-01-06T04:38:46;25.67;;;23.97;;
11531;SDS011;5822;51.000;5.874;2024-01-06T04:41:11;24.40;;;22.80;;
11531;SDS011;5822;51.000;5.874;2024-01-06T04:43:37;25.70;;;24.00;;
11531;SDS011;5822;51.000;5.874;2024-01-06T04:46:03;28.27;;;26.37;;
11531;SDS011;5822;51.000;5.874;2024-01-06T04:48:28;26.50;;;24.70;;
11531;SDS011;5822;51.000;5.874;2024-01-06T04:50:54;25.93;;;24.23;;
11531;SDS011;5822;51.000;5.874;2024-01-06T04:53:20;26.57;;;24.87;;
11531;SDS011;5822;51.000;5.874;2024-01-06T04:55:45;25.87;;;24.17;;
11531;SDS011;5822;51.000;5.874;2024-01-06T04:58:11;24.93;;;23.33;;
11531;SDS011;5822;51.000;5.874;2024-01-06T05:00:36;25.77;;;24.07;;
11531;SDS011;5822;51.000;5.874;2024-01-06T05:03:02;25.15;;;23.55;;
11531;SDS011;5822;51.000;5.874;2024-01-06T05:05:28;25.77;;;24.05;;
11531;SDS011;5822;51.000;5.874;2024-01-06T05:07:54;25.58;;;23.88;;
11531;SDS011;5822;51.000;5.874;2024-01-06T05:10:19;24.52;;;22.92;;
11531;SDS011;5822;51.000;5.874;2024-01-06T05:12:45;27.10;;;25.30;;
11531;SDS011;5822;51.000;5.874;2024-01-06T05:15:11;27.83;;;26.03;;
11531;SDS011;5822;51.000;5.874;2024-01-06T05:17:37;26.27;;;24.58;;
11531;SDS011;5822;51.000;5.874;2024-01-06T05:20:03;26.33;;;24.63;;
11531;SDS011;5822;51.000;5.874;2024-01-06T05:22:29;26.17;;;24.48;;
11531;SDS011;5822;51.000;5.874;2024-01-06T05:24:54;25.80;;;24.20;;
11531;SDS011;5822;51.000;5.874;2024-01-06T05:27:20;26.13;;;24.42;;
11531;SDS011;5822;51.000;5.874;2024-01-06T05:29:46;26.02;;;24.33;;
11531;SDS011;5822;51.000;5.874;2024-01-06T05:32:14;25.27;;;23.67;;
11531;SDS011;5822;51.000;5.874;2024-01-06T05:34:40;25.05;;;23.45;;
11531;SDS011;5822;51.000;5.874;2024-01-06T05:37:06;26.13;;;24.50;;
11531;SDS011;5822;51.000;5.874;2024-01-06T05:39:32;27.23;;;25.43;;
11531;SDS011;5822;51.000;5.874;2024-01-06T05:41:57;27.53;;;25.73;;
11531;SDS011;5822;51.000;5.874;2024-01-06T05:44:23;27.10;;;25.37;;
11531;SDS011;5822;51.000;5.874;2024-01-06T05:46:49;29.48;;;27.48;;
11531;SDS011;5822;51.000;5.874;2024-01-06T05:49:16;26.95;;;25.15;;
11531;SDS011;5822;51.000;5.874;2024-01-06T05:51:45;27.38;;;25.58;;
11531;SDS011;5822;51.000;5.874;2024-01-06T05:54:10;27.92;;;26.13;;
11531;SDS011;5822;51.000;5.874;2024-01-06T05:56:36;27.20;;;25.40;;
11531;SDS011;5822;51.000;5.874;2024-01-06T05:59:02;27.27;;;25.50;;
11531;SDS011;5822;51.000;5.874;2024-01-06T06:01:28;26.33;;;24.63;;
11531;SDS011;5822;51.000;5.874;2024-01-06T06:03:53;26.77;;;25.07;;
11531;SDS011;5822;51.000;5.874;2024-01-06T06:06:19;26.50;;;24.80;;
11531;SDS011;5822;51.000;5.874;2024-01-06T06:08:45;26.57;;;24.87;;
11531;SDS011;5822;51.000;5.874;2024-01-06T06:11:12;25.75;;;24.10;;
11531;SDS011;5822;51.000;5.874;2024-01-06T06:13:38;26.10;;;24.40;;
11531;SDS011;5822;51.000;5.874;2024-01-06T06:16:10;26.10;;;24.40;;
11531;SDS011;5822;51.000;5.874;2024-01-06T06:18:39;25.38;;;23.77;;
11531;SDS011;5822;51.000;5.874;2024-01-06T06:21:08;24.40;;;22.90;;
11531;SDS011;5822;51.000;5.874;2024-01-06T06:23:33;24.10;;;22.60;;
11531;SDS011;5822;51.000;5.874;2024-01-06T06:26:04;25.10;;;23.50;;
11531;SDS011;5822;51.000;5.874;2024-01-06T06:28:33;26.77;;;25.08;;
11531;SDS011;5822;51.000;5.874;2024-01-06T06:31:00;24.53;;;23.00;;
11531;SDS011;5822;51.000;5.874;2024-01-06T06:33:28;24.17;;;22.67;;
11531;SDS011;5822;51.000;5.874;2024-01-06T06:35:54;24.45;;;22.95;;
11531;SDS011;5822;51.000;5.874;2024-01-06T06:38:20;25.33;;;23.73;;
11531;SDS011;5822;51.000;5.874;2024-01-06T06:40:46;24.20;;;22.70;;
11531;SDS011;5822;51.000;5.874;2024-01-06T06:43:12;24.75;;;23.25;;
11531;SDS011;5822;51.000;5.874;2024-01-06T06:45:39;24.75;;;23.25;;
11531;SDS011;5822;51.000;5.874;2024-01-06T06:48:04;25.27;;;23.67;;
11531;SDS011;5822;51.000;5.874;2024-01-06T06:50:30;25.45;;;23.85;;
11531;SDS011;5822;51.000;5.874;2024-01-06T06:52:56;24.35;;;22.85;;
11531;SDS011;5822;51.000;5.874;2024-01-06T06:55:21;24.23;;;22.73;;
11531;SDS011;5822;51.000;5.874;2024-01-06T06:57:47;23.20;;;21.80;;
11531;SDS011;5822;51.000;5.874;2024-01-06T07:00:13;23.07;;;21.67;;
11531;SDS011;5822;51.000;5.874;2024-01-06T07:02:40;23.80;;;22.40;;
11531;SDS011;5822;51.000;5.874;2024-01-06T07:05:05;23.37;;;21.97;;
11531;SDS011;5822;51.000;5.874;2024-01-06T07:07:32;25.10;;;23.60;;
11531;SDS011;5822;51.000;5.874;2024-01-06T07:09:59;28.35;;;26.73;;
11531;SDS011;5822;51.000;5.874;2024-01-06T07:12:30;28.75;;;27.15;;
11531;SDS011;5822;51.000;5.874;2024-01-06T07:14:56;35.60;;;33.85;;
11531;SDS011;5822;51.000;5.874;2024-01-06T07:17:22;37.20;;;35.40;;
11531;SDS011;5822;51.000;5.874;2024-01-06T07:19:49;45.03;;;42.83;;
11531;SDS011;5822;51.000;5.874;2024-01-06T07:22:15;45.45;;;43.25;;
11531;SDS011;5822;51.000;5.874;2024-01-06T07:24:44;31.05;;;29.45;;
11531;SDS011;5822;51.000;5.874;2024-01-06T07:27:09;27.75;;;26.35;;
11531;SDS011;5822;51.000;5.874;2024-01-06T07:29:35;28.85;;;27.35;;
11531;SDS011;5822;51.000;5.874;2024-01-06T07:32:01;30.05;;;28.45;;
11531;SDS011;5822;51.000;5.874;2024-01-06T07:34:26;35.58;;;33.78;;
11531;SDS011;5822;51.000;5.874;2024-01-06T07:36:52;37.13;;;35.33;;
11531;SDS011;5822;51.000;5.874;2024-01-06T07:39:18;30.10;;;28.50;;
11531;SDS011;5822;51.000;5.874;2024-01-06T07:41:44;24.73;;;23.42;;
11531;SDS011;5822;51.000;5.874;2024-01-06T07:44:11;24.40;;;23.10;;
11531;SDS011;5822;51.000;5.874;2024-01-06T07:46:38;25.08;;;23.77;;
11531;SDS011;5822;51.000;5.874;2024-01-06T07:49:05;28.43;;;27.03;;
11531;SDS011;5822;51.000;5.874;2024-01-06T07:51:31;35.88;;;34.17;;
11531;SDS011;5822;51.000;5.874;2024-01-06T07:53:57;32.47;;;30.88;;
11531;SDS011;5822;51.000;5.874;2024-01-06T07:56:23;26.33;;;24.93;;
11531;SDS011;5822;51.000;5.874;2024-01-06T07:58:49;26.10;;;24.70;;
11531;SDS011;5822;51.000;5.874;2024-01-06T08:01:14;26.83;;;25.42;;
11531;SDS011;5822;51.000;5.874;2024-01-06T08:03:40;26.33;;;24.92;;
11531;SDS011;5822;51.000;5.874;2024-01-06T08:06:06;28.20;;;26.70;;
11531;SDS011;5822;51.000;5.874;2024-01-06T08:08:31;26.33;;;24.92;;
11531;SDS011;5822;51.000;5.874;2024-01-06T08:10:57;24.02;;;22.73;;
11531;SDS011;5822;51.000;5.874;2024-01-06T08:13:23;23.50;;;22.20;;
11531;SDS011;5822;51.000;5.874;2024-01-06T08:15:48;22.95;;;21.65;;
11531;SDS011;5822;51.000;5.874;2024-01-06T08:18:14;22.70;;;21.40;;
11531;SDS011;5822;51.000;5.874;2024-01-06T08:20:40;22.70;;;21.40;;
11531;SDS011;5822;51.000;5.874;2024-01-06T08:23:05;21.55;;;20.35;;
11531;SDS011;5822;51.000;5.874;2024-01-06T08:25:31;21.15;;;19.98;;
11531;SDS011;5822;51.000;5.874;2024-01-06T08:27:57;21.25;;;20.05;;
11531;SDS011;5822;51.000;5.874;2024-01-06T08:30:22;23.67;;;22.38;;
11531;SDS011;5822;51.000;5.874;2024-01-06T08:32:48;26.50;;;25.10;;
11531;SDS011;5822;51.000;5.874;2024-01-06T08:35:14;25.87;;;24.47;;
11531;SDS011;5822;51.000;5.874;2024-01-06T08:37:42;23.50;;;22.20;;
11531;SDS011;5822;51.000;5.874;2024-01-06T08:40:10;23.42;;;22.13;;
11531;SDS011;5822;51.000;5.874;2024-01-06T08:42:36;23.30;;;22.00;;
11531;SDS011;5822;51.000;5.874;2024-01-06T08:45:02;23.45;;;22.15;;
11531;SDS011;5822;51.000;5.874;2024-01-06T08:47:29;24.45;;;23.15;;
11531;SDS011;5822;51.000;5.874;2024-01-06T08:49:54;25.90;;;24.50;;
11531;SDS011;5822;51.000;5.874;2024-01-06T08:52:20;22.73;;;21.53;;
11531;SDS011;5822;51.000;5.874;2024-01-06T08:54:45;22.60;;;21.40;;
11531;SDS011;5822;51.000;5.874;2024-01-06T08:57:11;21.83;;;20.60;;
11531;SDS011;5822;51.000;5.874;2024-01-06T08:59:37;21.73;;;20.53;;
11531;SDS011;5822;51.000;5.874;2024-01-06T09:02:03;21.42;;;20.23;;
11531;SDS011;5822;51.000;5.874;2024-01-06T09:04:29;21.70;;;20.50;;
11531;SDS011;5822;51.000;5.874;2024-01-06T09:06:54;21.73;;;20.45;;
11531;SDS011;5822;51.000;5.874;2024-01-06T09:09:20;23.33;;;22.03;;
11531;SDS011;5822;51.000;5.874;2024-01-06T09:11:46;22.80;;;21.50;;
11531;SDS011;5822;51.000;5.874;2024-01-06T09:14:11;24.03;;;22.73;;
11531;SDS011;5822;51.000;5.874;2024-01-06T09:16:37;23.70;;;22.40;;
11531;SDS011;5822;51.000;5.874;2024-01-06T09:19:02;22.58;;;21.27;;
11531;SDS011;5822;51.000;5.874;2024-01-06T09:21:28;23.02;;;21.73;;
11531;SDS011;5822;51.000;5.874;2024-01-06T09:23:54;23.70;;;22.30;;
11531;SDS011;5822;51.000;5.874;2024-01-06T09:26:19;23.02;;;21.73;;
11531;SDS011;5822;51.000;5.874;2024-01-06T09:28:45;23.05;;;21.75;;
11531;SDS011;5822;51.000;5.874;2024-01-06T09:31:11;21.65;;;20.45;;
11531;SDS011;5822;51.000;5.874;2024-01-06T09:33:36;21.08;;;19.88;;
11531;SDS011;5822;51.000;5.874;2024-01-06T09:36:03;20.40;;;19.30;;
11531;SDS011;5822;51.000;5.874;2024-01-06T09:38:29;20.83;;;19.63;;
11531;SDS011;5822;51.000;5.874;2024-01-06T09:40:55;22.30;;;21.00;;
11531;SDS011;5822;51.000;5.874;2024-01-06T09:43:22;21.05;;;19.85;;
11531;SDS011;5822;51.000;5.874;2024-01-06T09:45:51;23.25;;;21.85;;
11531;SDS011;5822;51.000;5.874;2024-01-06T09:48:28;23.67;;;22.38;;
11531;SDS011;5822;51.000;5.874;2024-01-06T09:50:56;25.73;;;24.23;;
11531;SDS011;5822;51.000;5.874;2024-01-06T09:53:25;25.40;;;24.00;;
11531;SDS011;5822;51.000;5.874;2024-01-06T09:55:58;21.80;;;20.60;;
11531;SDS011;5822;51.000;5.874;2024-01-06T09:58:24;21.95;;;20.73;;
11531;SDS011;5822;51.000;5.874;2024-01-06T10:00:55;23.05;;;21.75;;
11531;SDS011;5822;51.000;5.874;2024-01-06T10:03:21;24.63;;;23.23;;
11531;SDS011;5822;51.000;5.874;2024-01-06T10:05:46;23.02;;;21.73;;
11531;SDS011;5822;51.000;5.874;2024-01-06T10:08:13;22.30;;;21.10;;
11531;SDS011;5822;51.000;5.874;2024-01-06T10:10:39;22.45;;;21.15;;
11531;SDS011;5822;51.000;5.874;2024-01-06T10:13:04;22.25;;;20.95;;
11531;SDS011;5822;51.000;5.874;2024-01-06T10:15:31;21.80;;;20.52;;
11531;SDS011;5822;51.000;5.874;2024-01-06T10:17:57;21.00;;;19.80;;
11531;SDS011;5822;51.000;5.874;2024-01-06T10:20:23;21.30;;;20.10;;
11531;SDS011;5822;51.000;5.874;2024-01-06T10:22:50;21.55;;;20.35;;
11531;SDS011;5822;51.000;5.874;2024-01-06T10:25:17;21.83;;;20.60;;
11531;SDS011;5822;51.000;5.874;2024-01-06T10:27:43;22.75;;;21.45;;
11531;SDS011;5822;51.000;5.874;2024-01-06T10:30:09;23.00;;;21.70;;
11531;SDS011;5822;51.000;5.874;2024-01-06T10:32:38;22.77;;;21.47;;
11531;SDS011;5822;51.000;5.874;2024-01-06T10:35:04;22.58;;;21.27;;
11531;SDS011;5822;51.000;5.874;2024-01-06T10:37:31;23.40;;;22.00;;
11531;SDS011;5822;51.000;5.874;2024-01-06T10:40:07;22.33;;;21.02;;
11531;SDS011;5822;51.000;5.874;2024-01-06T10:42:34;21.40;;;20.20;;
11531;SDS011;5822;51.000;5.874;2024-01-06T10:45:01;21.52;;;20.33;;
11531;SDS011;5822;51.000;5.874;2024-01-06T10:47:28;21.57;;;20.37;;
11531;SDS011;5822;51.000;5.874;2024-01-06T10:49:58;22.60;;;21.30;;
11531;SDS011;5822;51.000;5.874;2024-01-06T10:52:25;22.15;;;20.85;;
11531;SDS011;5822;51.000;5.874;2024-01-06T10:54:52;21.88;;;20.67;;
11531;SDS011;5822;51.000;5.874;2024-01-06T10:57:19;20.42;;;19.33;;
11531;SDS011;5822;51.000;5.874;2024-01-06T10:59:46;20.50;;;19.37;;
11531;SDS011;5822;51.000;5.874;2024-01-06T11:02:14;21.67;;;20.47;;
11531;SDS011;5822;51.000;5.874;2024-01-06T11:04:42;23.33;;;22.02;;
11531;SDS011;5822;51.000;5.874;2024-01-06T11:07:10;23.30;;;21.90;;
11531;SDS011;5822;51.000;5.874;2024-01-06T11:09:37;22.75;;;21.45;;
11531;SDS011;5822;51.000;5.874;2024-01-06T11:12:09;22.60;;;21.30;;
11531;SDS011;5822;51.000;5.874;2024-01-06T11:14:36;22.80;;;21.50;;
11531;SDS011;5822;51.000;5.874;2024-01-06T11:17:05;22.80;;;21.50;;
11531;SDS011;5822;51.000;5.874;2024-01-06T11:22:23;22.33;;;21.10;;
11531;SDS011;5822;51.000;5.874;2024-01-06T11:24:56;23.57;;;22.23;;
11531;SDS011;5822;51.000;5.874;2024-01-06T11:27:29;22.10;;;20.80;;
11531;SDS011;5822;51.000;5.874;2024-01-06T11:29:59;20.35;;;19.15;;
11531;SDS011;5822;51.000;5.874;2024-01-06T11:32:31;20.83;;;19.63;;
11531;SDS011;5822;51.000;5.874;2024-01-06T11:35:06;21.10;;;19.90;;
11531;SDS011;5822;51.000;5.874;2024-01-06T11:42:40;24.25;;;22.85;;
11531;SDS011;5822;51.000;5.874;2024-01-06T11:45:07;24.35;;;22.95;;
11531;SDS011;5822;51.000;5.874;2024-01-06T11:47:36;25.25;;;23.65;;
11531;SDS011;5822;51.000;5.874;2024-01-06T11:50:02;25.17;;;23.58;;
11531;SDS011;5822;51.000;5.874;2024-01-06T11:52:30;25.10;;;23.60;;
11531;SDS011;5822;51.000;5.874;2024-01-06T11:54:59;24.13;;;22.73;;
11531;SDS011;5822;51.000;5.874;2024-01-06T11:57:26;24.35;;;22.92;;
11531;SDS011;5822;51.000;5.874;2024-01-06T11:59:52;24.58;;;23.10;;
11531;SDS011;5822;51.000;5.874;2024-01-06T12:02:18;25.03;;;23.53;;
11531;SDS011;5822;51.000;5.874;2024-01-06T12:04:48;24.75;;;23.25;;
11531;SDS011;5822;51.000;5.874;2024-01-06T12:07:18;23.50;;;22.10;;
11531;SDS011;5822;51.000;5.874;2024-01-06T12:09:45;23.57;;;22.17;;
11531;SDS011;5822;51.000;5.874;2024-01-06T12:12:14;24.27;;;22.80;;
11531;SDS011;5822;51.000;5.874;2024-01-06T12:14:41;23.92;;;22.52;;
11531;SDS011;5822;51.000;5.874;2024-01-06T12:17:07;25.05;;;23.55;;
11531;SDS011;5822;51.000;5.874;2024-01-06T12:19:33;25.50;;;24.00;;
11531;SDS011;5822;51.000;5.874;2024-01-06T12:21:59;24.45;;;23.00;;
11531;SDS011;5822;51.000;5.874;2024-01-06T12:24:27;25.13;;;23.63;;
11531;SDS011;5822;51.000;5.874;2024-01-06T12:26:54;24.97;;;23.47;;
11531;SDS011;5822;51.000;5.874;2024-01-06T12:29:20;25.13;;;23.63;;
11531;SDS011;5822;51.000;5.874;2024-01-06T12:31:47;25.17;;;23.67;;
11531;SDS011;5822;51.000;5.874;2024-01-06T12:34:12;25.10;;;23.60;;
11531;SDS011;5822;51.000;5.874;2024-01-06T12:36:38;25.50;;;23.90;;
11531;SDS011;5822;51.000;5.874;2024-01-06T12:39:06;24.65;;;23.15;;
11531;SDS011;5822;51.000;5.874;2024-01-06T12:41:38;25.17;;;23.67;;
11531;SDS011;5822;51.000;5.874;2024-01-06T12:44:05;24.85;;;23.35;;
11531;SDS011;5822;51.000;5.874;2024-01-06T12:46:32;25.50;;;23.90;;
11531;SDS011;5822;51.000;5.874;2024-01-06T12:48:58;26.60;;;24.90;;
11531;SDS011;5822;51.000;5.874;2024-01-06T12:51:24;25.02;;;23.52;;
11531;SDS011;5822;51.000;5.874;2024-01-06T12:53:50;24.40;;;22.90;;
11531;SDS011;5822;51.000;5.874;2024-01-06T12:56:15;24.67;;;23.17;;
11531;SDS011;5822;51.000;5.874;2024-01-06T12:58:42;24.50;;;23.02;;
11531;SDS011;5822;51.000;5.874;2024-01-06T13:01:08;26.08;;;24.58;;
11531;SDS011;5822;51.000;5.874;2024-01-06T13:03:37;25.45;;;23.95;;
11531;SDS011;5822;51.000;5.874;2024-01-06T13:06:04;24.85;;;23.45;;
11531;SDS011;5822;51.000;5.874;2024-01-06T13:08:30;25.77;;;24.25;;
11531;SDS011;5822;51.000;5.874;2024-01-06T13:10:56;24.53;;;23.03;;
11531;SDS011;5822;51.000;5.874;2024-01-06T13:13:22;25.75;;;24.15;;
11531;SDS011;5822;51.000;5.874;2024-01-06T13:15:48;24.13;;;22.73;;
11531;SDS011;5822;51.000;5.874;2024-01-06T13:18:13;26.20;;;24.60;;
11531;SDS011;5822;51.000;5.874;2024-01-06T13:20:41;24.90;;;23.42;;
11531;SDS011;5822;51.000;5.874;2024-01-06T13:23:08;23.88;;;22.48;;
11531;SDS011;5822;51.000;5.874;2024-01-06T13:25:34;24.13;;;22.73;;
11531;SDS011;5822;51.000;5.874;2024-01-06T13:28:00;25.08;;;23.58;;
11531;SDS011;5822;51.000;5.874;2024-01-06T13:30:26;23.45;;;22.05;;
11531;SDS011;5822;51.000;5.874;2024-01-06T13:32:52;24.50;;;23.07;;
11531;SDS011;5822;51.000;5.874;2024-01-06T13:35:22;25.93;;;24.43;;
11531;SDS011;5822;51.000;5.874;2024-01-06T13:37:50;25.00;;;23.50;;
11531;SDS011;5822;51.000;5.874;2024-01-06T13:40:16;24.83;;;23.42;;
11531;SDS011;5822;51.000;5.874;2024-01-06T13:42:45;26.15;;;24.55;;
11531;SDS011;5822;51.000;5.874;2024-01-06T13:45:16;25.73;;;24.23;;
11531;SDS011;5822;51.000;5.874;2024-01-06T13:47:42;24.30;;;22.90;;
11531;SDS011;5822;51.000;5.874;2024-01-06T13:50:13;24.35;;;22.92;;
11531;SDS011;5822;51.000;5.874;2024-01-06T13:52:40;24.90;;;23.40;;
11531;SDS011;5822;51.000;5.874;2024-01-06T13:55:06;25.83;;;24.33;;
11531;SDS011;5822;51.000;5.874;2024-01-06T13:57:33;24.98;;;23.48;;
11531;SDS011;5822;51.000;5.874;2024-01-06T14:00:00;23.63;;;22.23;;
11531;SDS011;5822;51.000;5.874;2024-01-06T14:02:26;23.57;;;22.17;;
11531;SDS011;5822;51.000;5.874;2024-01-06T14:04:52;23.92;;;22.52;;
11531;SDS011;5822;51.000;5.874;2024-01-06T14:07:20;25.70;;;24.13;;
11531;SDS011;5822;51.000;5.874;2024-01-06T14:09:47;24.30;;;22.80;;
11531;SDS011;5822;51.000;5.874;2024-01-06T14:12:13;25.17;;;23.67;;
11531;SDS011;5822;51.000;5.874;2024-01-06T14:14:38;25.75;;;24.25;;
11531;SDS011;5822;51.000;5.874;2024-01-06T14:17:06;25.85;;;24.35;;
11531;SDS011;5822;51.000;5.874;2024-01-06T14:19:32;26.38;;;24.77;;
11531;SDS011;5822;51.000;5.874;2024-01-06T14:21:58;25.27;;;23.77;;
11531;SDS011;5822;51.000;5.874;2024-01-06T14:24:23;25.57;;;24.07;;
11531;SDS011;5822;51.000;5.874;2024-01-06T14:26:50;24.25;;;22.85;;
11531;SDS011;5822;51.000;5.874;2024-01-06T14:29:16;24.60;;;23.10;;
11531;SDS011;5822;51.000;5.874;2024-01-06T14:31:42;24.23;;;22.77;;
11531;SDS011;5822;51.000;5.874;2024-01-06T14:34:08;25.08;;;23.58;;
11531;SDS011;5822;51.000;5.874;2024-01-06T14:36:34;24.52;;;23.10;;